Time;durP1;ratioP1;P1;durP2;ratioP2;P2;SDS_P1;SDS_P2;PMS_P1;PMS_P2;Temp;Humidity;BMP_temperature;BMP_pressure;BME280_temperature;BME280_humidity;BME280_pressure;Samples;Min_cycle;Max_cycle;Signal;HPM_P1;HPM_P2
2022/12/07 00:01:13;;;;;;;34.90;17.60;;;4.10;99.90;;;;;;5042499;28;20030;-67
2022/12/07 00:03:40;;;;;;;38.22;17.27;;;4.10;99.90;;;;;;5025931;28;20018;-67
2022/12/07 00:06:07;;;;;;;33.70;17.85;;;4.20;99.90;;;;;;5045867;28;20025;-67
2022/12/07 00:08:33;;;;;;;38.47;18.60;;;4.20;99.90;;;;;;5036363;28;20037;-68
2022/12/07 00:11:04;;;;;;;38.75;19.35;;;4.20;99.90;;;;;;5026361;28;20466;-67
2022/12/07 00:13:32;;;;;;;39.90;20.58;;;4.20;99.90;;;;;;5046547;28;20494;-67
2022/12/07 00:16:06;;;;;;;39.40;18.38;;;4.30;99.90;;;;;;5036164;28;20029;-66
2022/12/07 00:18:32;;;;;;;46.13;21.05;;;4.30;99.90;;;;;;5045499;28;20029;-67
2022/12/07 00:21:07;;;;;;;44.72;21.80;;;4.30;99.90;;;;;;5044909;28;20403;-67
2022/12/07 00:23:33;;;;;;;43.90;20.67;;;4.30;99.90;;;;;;5043292;28;20029;-67
2022/12/07 00:26:06;;;;;;;46.42;22.65;;;4.30;99.90;;;;;;5045022;28;20495;-67
2022/12/07 00:28:33;;;;;;;48.78;23.75;;;4.30;99.90;;;;;;5048745;28;20029;-67
2022/12/07 00:31:11;;;;;;;52.22;22.73;;;4.30;99.90;;;;;;5045184;28;20121;-67
2022/12/07 00:33:38;;;;;;;51.08;22.77;;;4.40;99.90;;;;;;5027982;28;20056;-67
2022/12/07 00:36:09;;;;;;;45.47;22.80;;;4.40;99.90;;;;;;5043538;28;20037;-67
2022/12/07 00:38:36;;;;;;;46.08;22.05;;;4.40;99.90;;;;;;5028771;28;20031;-66
2022/12/07 00:41:09;;;;;;;53.40;25.10;;;4.40;99.90;;;;;;5035173;28;20396;-67
2022/12/07 00:43:35;;;;;;;50.72;22.85;;;4.40;99.90;;;;;;5031175;28;20032;-66
2022/12/07 00:46:00;;;;;;;54.17;23.52;;;4.40;99.90;;;;;;5036554;28;20033;-66
2022/12/07 00:48:26;;;;;;;47.63;23.40;;;4.40;99.90;;;;;;5028719;28;20033;-66
2022/12/07 00:50:52;;;;;;;52.00;23.58;;;4.40;99.90;;;;;;5042520;28;20086;-67
2022/12/07 00:53:18;;;;;;;48.30;22.58;;;4.40;99.90;;;;;;5037677;28;20039;-66
2022/12/07 00:55:44;;;;;;;46.08;22.30;;;4.40;99.90;;;;;;5030524;28;20027;-66
2022/12/07 00:58:09;;;;;;;44.50;21.35;;;4.50;99.90;;;;;;5044495;28;20064;-67
2022/12/07 01:00:37;;;;;;;45.00;22.35;;;4.40;99.90;;;;;;5021820;28;20117;-67
2022/12/07 01:03:04;;;;;;;43.08;20.98;;;4.40;99.90;;;;;;5037946;28;20021;-67
2022/12/07 01:05:30;;;;;;;40.17;21.75;;;4.40;99.90;;;;;;5049949;28;20025;-67
2022/12/07 01:07:55;;;;;;;51.60;23.45;;;4.40;99.90;;;;;;5042224;28;20036;-67
2022/12/07 01:10:22;;;;;;;47.67;23.08;;;4.50;99.90;;;;;;5037369;28;20063;-67
2022/12/07 01:12:47;;;;;;;78.20;36.42;;;4.50;99.90;;;;;;5042532;28;20751;-67
2022/12/07 01:15:13;;;;;;;47.22;26.98;;;4.50;99.90;;;;;;5033222;28;20029;-66
2022/12/07 01:17:38;;;;;;;46.78;22.35;;;4.50;99.90;;;;;;5046269;28;20029;-67
2022/12/07 01:20:06;;;;;;;47.78;22.90;;;4.50;99.90;;;;;;5047661;28;20120;-67
2022/12/07 01:22:40;;;;;;;46.03;22.33;;;4.50;99.90;;;;;;5045015;28;20036;-67
2022/12/07 01:25:07;;;;;;;42.42;22.95;;;4.50;99.90;;;;;;5049605;28;20032;-68
2022/12/07 01:27:33;;;;;;;43.45;22.33;;;4.50;99.90;;;;;;5043096;28;20106;-66
2022/12/07 01:29:59;;;;;;;52.13;25.55;;;4.50;99.90;;;;;;5023257;28;20052;-67
2022/12/07 01:32:25;;;;;;;50.33;24.73;;;4.50;99.90;;;;;;5044658;28;20491;-65
2022/12/07 01:34:50;;;;;;;43.60;21.85;;;4.50;99.90;;;;;;5039248;28;20033;-67
2022/12/07 01:37:16;;;;;;;48.20;21.75;;;4.50;99.90;;;;;;5044493;28;20021;-67
2022/12/07 01:39:41;;;;;;;40.88;20.70;;;4.50;99.90;;;;;;5042375;28;20040;-67
2022/12/07 01:42:11;;;;;;;45.60;21.67;;;4.50;99.90;;;;;;5046296;28;20041;-67
2022/12/07 01:45:14;;;;;;;50.58;23.65;;;4.50;99.90;;;;;;5033016;28;20041;-66
2022/12/07 01:47:45;;;;;;;48.92;22.08;;;4.60;99.90;;;;;;5040443;28;20044;-67
2022/12/07 01:50:11;;;;;;;44.60;22.88;;;4.60;99.90;;;;;;5036951;28;20486;-66
2022/12/07 01:52:38;;;;;;;45.03;22.35;;;4.60;99.90;;;;;;5034298;28;20021;-67
2022/12/07 01:55:08;;;;;;;43.10;21.90;;;4.60;99.90;;;;;;5035815;28;20049;-66
2022/12/07 01:57:35;;;;;;;45.60;21.95;;;4.60;99.90;;;;;;5040268;28;20542;-67
2022/12/07 02:00:02;;;;;;;43.05;21.02;;;4.60;99.90;;;;;;5025482;28;20106;-66
2022/12/07 02:02:34;;;;;;;46.13;21.13;;;4.60;99.90;;;;;;5035585;28;20025;-67
2022/12/07 02:05:03;;;;;;;42.65;20.73;;;4.60;99.90;;;;;;5038548;28;20024;-66
2022/12/07 02:07:29;;;;;;;46.60;21.08;;;4.60;99.90;;;;;;5032496;28;20395;-67
2022/12/07 02:09:55;;;;;;;40.00;21.02;;;4.60;99.90;;;;;;5019183;28;20033;-66
2022/12/07 02:12:23;;;;;;;48.22;22.83;;;4.60;99.90;;;;;;5036382;28;20029;-67
2022/12/07 02:14:49;;;;;;;52.10;22.50;;;4.60;99.90;;;;;;5033270;28;20021;-66
2022/12/07 02:17:49;;;;;;;50.58;23.27;;;4.60;99.90;;;;;;5036388;28;20029;-67
2022/12/07 02:20:25;;;;;;;46.67;22.88;;;4.60;99.90;;;;;;5038669;28;20043;-67
2022/12/07 02:23:07;;;;;;;46.42;22.80;;;4.60;99.90;;;;;;5035219;28;20120;-67
2022/12/07 02:25:54;;;;;;;43.47;22.27;;;4.60;99.90;;;;;;5033590;28;20040;-67
2022/12/07 02:28:25;;;;;;;43.65;21.27;;;4.60;99.90;;;;;;5035948;28;20532;-66
2022/12/07 02:30:52;;;;;;;46.13;22.27;;;4.60;99.90;;;;;;5026356;28;20402;-67
2022/12/07 02:33:29;;;;;;;36.10;20.92;;;4.60;99.90;;;;;;5035172;28;20027;-67
2022/12/07 02:35:58;;;;;;;38.63;22.23;;;4.60;99.90;;;;;;5032187;28;20034;-65
2022/12/07 02:38:36;;;;;;;41.20;20.75;;;4.50;99.90;;;;;;5039488;28;20064;-67
2022/12/07 02:41:27;;;;;;;40.00;21.17;;;4.50;99.90;;;;;;5033053;28;20116;-66
2022/12/07 02:43:56;;;;;;;41.85;20.63;;;4.50;99.90;;;;;;5016979;28;20053;-67
2022/12/07 02:46:26;;;;;;;37.53;20.65;;;4.50;99.90;;;;;;5048453;28;20021;-67
2022/12/07 02:48:54;;;;;;;34.90;19.08;;;4.50;99.90;;;;;;5049152;28;20079;-66
2022/12/07 02:51:20;;;;;;;42.10;19.67;;;4.50;99.90;;;;;;5044080;28;20112;-67
2022/12/07 02:53:46;;;;;;;48.53;22.55;;;4.50;99.90;;;;;;5032455;28;20028;-66
2022/12/07 02:56:11;;;;;;;42.80;21.58;;;4.50;99.90;;;;;;5051218;28;20029;-67
2022/12/07 02:59:04;;;;;;;47.85;22.52;;;4.50;99.90;;;;;;5050791;28;20901;-67
2022/12/07 03:02:07;;;;;;;41.22;20.73;;;4.60;99.90;;;;;;5041396;28;20026;-67
2022/12/07 03:05:01;;;;;;;44.38;21.60;;;4.50;99.90;;;;;;5041119;28;20029;-67
2022/12/07 03:07:39;;;;;;;45.85;21.95;;;4.50;99.90;;;;;;5039365;28;20021;-66
2022/12/07 03:10:11;;;;;;;45.45;22.73;;;4.50;99.90;;;;;;5050985;28;20028;-66
2022/12/07 03:12:45;;;;;;;41.97;22.52;;;4.50;99.90;;;;;;5039926;28;20415;-67
2022/12/07 03:15:18;;;;;;;50.78;23.92;;;4.50;99.90;;;;;;5047464;28;20448;-64
2022/12/07 03:17:47;;;;;;;43.25;22.52;;;4.50;99.90;;;;;;5021783;28;20041;-67
2022/12/07 03:20:15;;;;;;;53.60;26.05;;;4.50;99.90;;;;;;5037631;28;20021;-67
2022/12/07 03:22:43;;;;;;;48.65;24.77;;;4.50;99.90;;;;;;5049860;28;20386;-67
2022/12/07 03:25:13;;;;;;;49.80;25.15;;;4.50;99.90;;;;;;5051991;28;20075;-65
2022/12/07 03:27:52;;;;;;;51.90;22.90;;;4.50;99.90;;;;;;5041371;28;20021;-67
2022/12/07 03:30:21;;;;;;;52.67;24.58;;;4.50;99.90;;;;;;5049538;28;20080;-66
2022/12/07 03:33:13;;;;;;;46.97;22.33;;;4.60;99.90;;;;;;5037746;28;20032;-67
2022/12/07 03:35:47;;;;;;;42.17;23.00;;;4.50;99.90;;;;;;5051213;28;20017;-67
2022/12/07 03:38:29;;;;;;;;;;;4.50;99.90;;;;;;5042065;28;20036;-68
2022/12/07 03:41:05;;;;;;;45.20;22.83;;;4.50;99.90;;;;;;5038410;28;20585;-67
2022/12/07 03:43:32;;;;;;;51.60;22.10;;;4.50;99.90;;;;;;5024822;28;20047;-67
2022/12/07 03:46:06;;;;;;;52.45;25.17;;;4.50;99.90;;;;;;5032363;28;20029;-68
2022/12/07 03:48:46;;;;;;;41.60;21.05;;;4.50;99.90;;;;;;5029399;28;20029;-67
2022/12/07 03:51:30;;;;;;;42.60;22.10;;;4.50;99.90;;;;;;5037840;28;20099;-66
2022/12/07 03:54:25;;;;;;;44.17;23.15;;;4.50;99.90;;;;;;5048866;28;20025;-68
2022/12/07 03:56:53;;;;;;;49.53;23.67;;;4.50;99.90;;;;;;5033582;28;20045;-67
2022/12/07 03:59:19;;;;;;;48.05;23.67;;;4.50;99.90;;;;;;5048891;28;20044;-67
2022/12/07 04:01:51;;;;;;;53.13;23.73;;;4.50;99.90;;;;;;5031089;28;20155;-67
2022/12/07 04:04:17;;;;;;;47.28;24.08;;;4.50;99.90;;;;;;5049043;28;20112;-67
2022/12/07 04:06:43;;;;;;;47.15;23.48;;;4.50;99.90;;;;;;5049686;28;20145;-67
2022/12/07 04:09:08;;;;;;;47.20;23.23;;;4.50;99.90;;;;;;5048324;28;20428;-67
2022/12/07 04:11:34;;;;;;;54.03;27.35;;;4.50;99.90;;;;;;5039045;28;20384;-66
2022/12/07 04:14:18;;;;;;;45.78;25.13;;;4.50;99.90;;;;;;5042097;28;20036;-68
2022/12/07 04:16:56;;;;;;;50.60;24.08;;;4.50;99.90;;;;;;5046021;28;20117;-66
2022/12/07 04:19:28;;;;;;;46.65;24.20;;;4.50;99.90;;;;;;5042592;28;20017;-67
2022/12/07 04:21:54;;;;;;;46.28;23.05;;;4.50;99.90;;;;;;5042110;28;20478;-67
2022/12/07 04:24:20;;;;;;;57.67;25.73;;;4.50;99.90;;;;;;5040338;28;20671;-67
2022/12/07 04:26:46;;;;;;;51.55;24.20;;;4.40;99.90;;;;;;5046809;28;20041;-66
2022/12/07 04:29:12;;;;;;;46.67;21.08;;;4.50;99.90;;;;;;5044614;28;20032;-67
2022/12/07 04:31:38;;;;;;;40.70;21.15;;;4.50;99.90;;;;;;5048918;28;20447;-66
2022/12/07 04:34:05;;;;;;;42.33;21.42;;;4.50;99.90;;;;;;5047006;28;20068;-67
2022/12/07 04:36:31;;;;;;;44.78;19.92;;;4.50;99.90;;;;;;5044592;28;20028;-68
2022/12/07 04:38:57;;;;;;;35.28;19.08;;;4.50;99.90;;;;;;5048504;28;20033;-68
2022/12/07 04:41:26;;;;;;;38.00;19.05;;;4.40;99.90;;;;;;5049067;28;20033;-67
2022/12/07 04:43:54;;;;;;;38.42;19.67;;;4.40;99.90;;;;;;5035697;28;20041;-67
2022/12/07 04:46:19;;;;;;;39.35;19.85;;;4.50;99.90;;;;;;5048927;28;20017;-68
2022/12/07 04:48:45;;;;;;;42.97;21.33;;;4.50;99.90;;;;;;5041922;28;20052;-67
2022/12/07 04:51:10;;;;;;;40.15;21.50;;;4.50;99.90;;;;;;5044591;28;20461;-67
2022/12/07 04:53:36;;;;;;;44.30;22.05;;;4.50;99.90;;;;;;5045587;28;20021;-66
2022/12/07 04:56:02;;;;;;;45.08;21.52;;;4.50;99.90;;;;;;5042457;28;20022;-66
2022/12/07 04:58:27;;;;;;;42.60;21.25;;;4.50;99.90;;;;;;5048108;28;20037;-68
2022/12/07 05:00:56;;;;;;;46.78;23.25;;;4.50;99.90;;;;;;5043408;28;20040;-67
2022/12/07 05:03:22;;;;;;;45.58;23.35;;;4.50;99.90;;;;;;5047394;28;20070;-66
2022/12/07 05:05:47;;;;;;;44.35;22.70;;;4.60;99.90;;;;;;5048734;28;20025;-67
2022/12/07 05:08:13;;;;;;;39.65;21.35;;;4.50;99.90;;;;;;5045531;28;20036;-67
2022/12/07 05:10:38;;;;;;;44.67;23.02;;;4.50;99.90;;;;;;5044902;28;20614;-67
2022/12/07 05:13:04;;;;;;;48.03;24.50;;;4.50;99.90;;;;;;5041191;28;20449;-68
2022/12/07 05:15:29;;;;;;;44.00;23.33;;;4.50;99.90;;;;;;5043188;28;20036;-68
2022/12/07 05:17:55;;;;;;;43.83;21.85;;;4.50;99.90;;;;;;5042964;28;20036;-68
2022/12/07 05:20:20;;;;;;;41.95;22.35;;;4.50;99.90;;;;;;5046437;28;20100;-67
2022/12/07 05:22:46;;;;;;;39.20;20.45;;;4.50;99.90;;;;;;5047587;28;20029;-67
2022/12/07 05:25:12;;;;;;;44.20;22.77;;;4.40;99.90;;;;;;5049754;28;20021;-68
2022/12/07 05:27:37;;;;;;;57.30;21.95;;;4.40;99.90;;;;;;5046142;28;20025;-65
2022/12/07 05:30:04;;;;;;;54.53;25.80;;;4.40;99.90;;;;;;5049865;28;20036;-68
2022/12/07 05:32:30;;;;;;;51.40;25.13;;;4.50;99.90;;;;;;5045938;28;20033;-67
2022/12/07 05:34:56;;;;;;;51.67;25.33;;;4.40;99.90;;;;;;5048266;28;20082;-68
2022/12/07 05:37:21;;;;;;;57.85;27.75;;;4.40;99.90;;;;;;5049059;28;20029;-68
2022/12/07 05:39:47;;;;;;;47.55;24.88;;;4.40;99.90;;;;;;5045684;28;20111;-68
2022/12/07 05:42:12;;;;;;;56.40;26.48;;;4.40;99.90;;;;;;5042262;28;20045;-68
2022/12/07 05:44:47;;;;;;;53.45;24.83;;;4.40;99.90;;;;;;5036687;28;20072;-68
2022/12/07 05:47:14;;;;;;;57.75;25.60;;;4.40;99.90;;;;;;5049081;28;20029;-67
2022/12/07 05:49:40;;;;;;;55.28;25.88;;;4.40;99.90;;;;;;5047153;28;20589;-67
2022/12/07 05:52:06;;;;;;;56.30;25.40;;;4.40;99.90;;;;;;5014018;28;20072;-67
2022/12/07 05:54:32;;;;;;;59.90;25.45;;;4.40;99.90;;;;;;5041350;28;20041;-67
2022/12/07 05:56:58;;;;;;;43.10;22.70;;;4.50;99.90;;;;;;5049081;28;20040;-68
2022/12/07 05:59:25;;;;;;;50.15;24.00;;;4.50;99.90;;;;;;5048320;28;20029;-68
2022/12/07 06:01:52;;;;;;;45.25;22.85;;;4.50;99.90;;;;;;5042842;28;20059;-67
2022/12/07 06:04:18;;;;;;;48.60;23.30;;;4.50;99.90;;;;;;5041843;28;20025;-66
2022/12/07 06:06:44;;;;;;;44.60;22.25;;;4.50;99.90;;;;;;5043934;28;20017;-67
2022/12/07 06:09:10;;;;;;;36.15;19.20;;;4.50;99.90;;;;;;5041316;28;20033;-67
2022/12/07 06:14:20;;;;;;;43.78;19.77;;;4.50;99.90;;;;;;5037753;28;20104;-68
2022/12/07 06:16:45;;;;;;;44.85;22.42;;;4.40;99.90;;;;;;5037826;28;20069;-67
2022/12/07 06:19:11;;;;;;;45.92;21.10;;;4.50;99.90;;;;;;5045033;28;20033;-68
2022/12/07 06:21:36;;;;;;;53.72;24.35;;;4.40;99.90;;;;;;5050888;28;20047;-66
2022/12/07 06:24:02;;;;;;;55.42;22.77;;;4.50;99.90;;;;;;5053515;28;20082;-67
2022/12/07 06:26:28;;;;;;;45.38;23.17;;;4.50;99.90;;;;;;5054341;28;20021;-68
2022/12/07 06:28:54;;;;;;;46.67;24.48;;;4.40;99.90;;;;;;5053760;28;20589;-67
2022/12/07 06:31:19;;;;;;;52.08;24.08;;;4.40;99.90;;;;;;5053701;28;20114;-68
2022/12/07 06:33:45;;;;;;;49.15;22.95;;;4.40;99.90;;;;;;5043794;28;20380;-67
2022/12/07 06:36:11;;;;;;;45.58;23.20;;;4.40;99.90;;;;;;5052542;28;20174;-67
2022/12/07 06:38:37;;;;;;;52.45;23.02;;;4.40;99.90;;;;;;5047785;28;20025;-69
2022/12/07 06:41:02;;;;;;;42.28;22.52;;;4.40;99.90;;;;;;5049915;28;20453;-67
2022/12/07 06:43:29;;;;;;;47.05;21.50;;;4.30;99.90;;;;;;5052658;28;20049;-68
2022/12/07 06:45:54;;;;;;;40.67;21.75;;;4.30;99.90;;;;;;5040329;28;20040;-67
2022/12/07 06:48:20;;;;;;;44.80;22.27;;;4.40;99.90;;;;;;5050571;28;20044;-67
2022/12/07 06:50:46;;;;;;;38.70;20.13;;;4.40;99.90;;;;;;5044364;28;20040;-67
2022/12/07 06:53:12;;;;;;;42.42;21.15;;;4.40;99.90;;;;;;5051981;28;20053;-67
2022/12/07 06:55:38;;;;;;;46.97;21.27;;;4.30;99.90;;;;;;5049840;28;20102;-65
2022/12/07 06:58:03;;;;;;;41.92;20.80;;;4.30;99.90;;;;;;5052313;28;20155;-66
2022/12/07 07:00:30;;;;;;;38.80;20.50;;;4.30;99.90;;;;;;5051768;28;20044;-65
2022/12/07 07:02:55;;;;;;;42.05;21.10;;;4.30;99.90;;;;;;5043047;28;20029;-67
2022/12/07 07:05:21;;;;;;;41.75;19.48;;;4.30;99.90;;;;;;5045609;28;20029;-67
2022/12/07 07:07:48;;;;;;;40.47;19.98;;;4.30;99.90;;;;;;5046443;28;20056;-68
2022/12/07 07:10:14;;;;;;;46.03;19.42;;;4.30;99.90;;;;;;5052922;28;20029;-66
2022/12/07 07:12:39;;;;;;;42.53;20.92;;;4.30;99.90;;;;;;5040022;28;20032;-66
2022/12/07 07:15:05;;;;;;;47.05;19.85;;;4.30;99.90;;;;;;5054018;28;20033;-67
2022/12/07 07:17:31;;;;;;;40.65;21.17;;;4.20;99.90;;;;;;5050932;28;20025;-69
2022/12/07 07:19:56;;;;;;;43.13;19.38;;;4.20;99.90;;;;;;5048442;28;20670;-67
2022/12/07 07:22:22;;;;;;;40.47;22.63;;;4.30;99.90;;;;;;5048245;28;20092;-67
2022/12/07 07:24:47;;;;;;;39.42;20.80;;;4.30;99.90;;;;;;5042850;28;20032;-67
2022/12/07 07:27:13;;;;;;;46.22;21.25;;;4.30;99.90;;;;;;5050152;28;20037;-68
2022/12/07 07:29:39;;;;;;;41.72;20.30;;;4.20;99.90;;;;;;5024707;28;20037;-66
2022/12/07 07:32:04;;;;;;;38.72;20.30;;;4.30;99.90;;;;;;5045731;28;20065;-67
2022/12/07 07:34:30;;;;;;;37.13;19.92;;;4.30;99.90;;;;;;5040386;28;20056;-67
2022/12/07 07:36:55;;;;;;;35.10;19.08;;;4.20;99.90;;;;;;5044852;28;20513;-67
2022/12/07 07:39:21;;;;;;;39.88;20.30;;;4.10;99.90;;;;;;5046082;28;20807;-67
2022/12/07 07:41:46;;;;;;;38.70;19.38;;;4.00;99.90;;;;;;5046390;28;20415;-67
2022/12/07 07:44:12;;;;;;;32.30;17.63;;;3.90;99.90;;;;;;5047634;28;20021;-69
2022/12/07 07:46:38;;;;;;;38.90;18.67;;;3.90;99.90;;;;;;5032495;28;20065;-69
2022/12/07 07:49:03;;;;;;;47.42;20.33;;;4.00;99.90;;;;;;5043964;28;20036;-69
2022/12/07 07:51:29;;;;;;;41.88;20.83;;;4.00;99.90;;;;;;5048389;28;20486;-69
2022/12/07 07:53:55;;;;;;;38.63;18.45;;;4.00;99.90;;;;;;5050812;28;20040;-68
2022/12/07 07:56:20;;;;;;;42.75;21.77;;;4.10;99.90;;;;;;5045645;28;20056;-69
2022/12/07 07:58:46;;;;;;;47.15;19.92;;;4.10;99.90;;;;;;5041356;28;20060;-68
2022/12/07 08:01:13;;;;;;;38.42;19.80;;;4.20;99.90;;;;;;5049340;28;20021;-66
2022/12/07 08:03:39;;;;;;;46.20;21.77;;;4.20;99.90;;;;;;5043882;28;20014;-64
2022/12/07 08:06:05;;;;;;;38.05;21.67;;;4.10;99.90;;;;;;5041308;28;20036;-66
2022/12/07 08:08:31;;;;;;;44.17;21.45;;;4.10;99.90;;;;;;5046979;28;20035;-67
2022/12/07 08:11:00;;;;;;;38.80;19.95;;;4.20;99.90;;;;;;5043389;28;20398;-66
2022/12/07 08:13:26;;;;;;;44.75;19.38;;;4.30;99.90;;;;;;5046220;28;20434;-66
2022/12/07 08:15:51;;;;;;;41.45;19.70;;;4.40;99.90;;;;;;5044704;28;20037;-66
2022/12/07 08:18:17;;;;;;;37.47;19.48;;;4.40;99.90;;;;;;5047440;28;20083;-66
2022/12/07 08:20:42;;;;;;;35.08;17.80;;;4.50;99.90;;;;;;5046958;28;20014;-66
2022/12/07 08:23:10;;;;;;;48.40;20.00;;;4.60;99.90;;;;;;5038810;28;20075;-67
2022/12/07 08:25:35;;;;;;;37.63;19.63;;;4.60;99.90;;;;;;5037716;28;20398;-66
2022/12/07 08:28:02;;;;;;;45.35;20.80;;;4.70;99.90;;;;;;5048601;28;20040;-66
2022/12/07 08:30:29;;;;;;;37.55;18.92;;;4.80;99.90;;;;;;5041522;28;20029;-66
2022/12/07 08:32:55;;;;;;;39.58;20.88;;;4.80;99.90;;;;;;5043964;28;20037;-66
2022/12/07 08:35:21;;;;;;;39.08;17.92;;;4.90;99.90;;;;;;5044167;28;20039;-67
2022/12/07 08:37:46;;;;;;;38.13;19.05;;;5.00;99.90;;;;;;5044796;28;20116;-66
2022/12/07 08:40:15;;;;;;;37.85;17.83;;;5.00;99.90;;;;;;5043827;28;20047;-66
2022/12/07 08:42:47;;;;;;;37.75;19.13;;;5.00;99.90;;;;;;5046729;28;20033;-66
2022/12/07 08:45:15;;;;;;;35.33;17.90;;;5.00;99.90;;;;;;5037212;28;20040;-66
2022/12/07 08:48:05;;;;;;;38.10;18.23;;;4.90;99.90;;;;;;5044135;28;20049;-65
2022/12/07 08:50:33;;;;;;;32.85;17.85;;;4.90;99.90;;;;;;5041952;28;20033;-67
2022/12/07 08:52:59;;;;;;;30.15;17.55;;;4.90;99.90;;;;;;5048119;28;20056;-68
2022/12/07 08:55:27;;;;;;;31.42;16.83;;;4.90;99.90;;;;;;5041330;28;20107;-66
2022/12/07 08:57:52;;;;;;;37.88;17.48;;;5.00;99.90;;;;;;5041795;28;20022;-66
2022/12/07 09:00:18;;;;;;;33.83;18.35;;;4.90;99.90;;;;;;5041879;28;20028;-67
2022/12/07 09:02:45;;;;;;;36.45;18.13;;;4.90;99.90;;;;;;5038441;28;20021;-67
2022/12/07 09:05:11;;;;;;;33.42;17.73;;;4.90;99.90;;;;;;5042530;28;20029;-67
2022/12/07 09:07:38;;;;;;;36.20;18.75;;;5.00;99.90;;;;;;5040611;28;20013;-66
2022/12/07 09:10:06;;;;;;;35.05;18.58;;;5.00;99.90;;;;;;5043341;28;20411;-67
2022/12/07 09:12:32;;;;;;;32.55;16.83;;;5.10;99.90;;;;;;5046888;28;20498;-67
2022/12/07 09:14:57;;;;;;;36.25;18.25;;;5.00;99.90;;;;;;5047080;28;20033;-67
2022/12/07 09:17:23;;;;;;;29.52;17.48;;;5.00;99.90;;;;;;5048017;28;20024;-67
2022/12/07 09:19:48;;;;;;;38.45;17.90;;;5.00;99.90;;;;;;5040205;28;20086;-67
2022/12/07 09:22:14;;;;;;;30.65;17.60;;;5.00;99.90;;;;;;5045806;28;20040;-67
2022/12/07 09:24:39;;;;;;;32.13;18.67;;;4.90;99.90;;;;;;5042687;28;20079;-67
2022/12/07 09:27:05;;;;;;;35.13;18.55;;;4.90;99.90;;;;;;5025396;28;20112;-67
2022/12/07 09:29:31;;;;;;;32.85;17.45;;;4.90;99.90;;;;;;5042723;28;20032;-66
2022/12/07 09:31:56;;;;;;;32.83;17.67;;;5.00;99.90;;;;;;5037083;28;20491;-67
2022/12/07 09:34:22;;;;;;;28.83;17.70;;;5.10;99.90;;;;;;5045160;28;20032;-67
2022/12/07 09:36:47;;;;;;;33.70;17.65;;;5.10;99.90;;;;;;5044636;28;20024;-68
2022/12/07 09:39:13;;;;;;;34.97;19.65;;;5.10;99.90;;;;;;5044515;28;20082;-69
2022/12/07 09:41:41;;;;;;;52.00;24.92;;;5.10;99.90;;;;;;5040037;28;20104;-68
2022/12/07 09:44:12;;;;;;;35.60;18.33;;;5.30;99.90;;;;;;5005554;28;20052;-68
2022/12/07 09:46:40;;;;;;;32.13;17.00;;;5.40;99.90;;;;;;5036019;28;20065;-69
2022/12/07 09:49:18;;;;;;;29.73;16.02;;;5.50;99.90;;;;;;5045506;28;20101;-68
2022/12/07 09:51:45;;;;;;;31.50;16.50;;;5.60;99.90;;;;;;5035799;28;20543;-69
2022/12/07 09:54:16;;;;;;;26.20;16.33;;;5.60;99.90;;;;;;5041207;28;20390;-69
2022/12/07 09:56:42;;;;;;;35.45;20.52;;;5.60;99.90;;;;;;5013950;28;20800;-69
2022/12/07 09:59:18;;;;;;;34.33;14.77;;;5.60;99.90;;;;;;5041452;28;20498;-67
2022/12/07 10:01:48;;;;;;;27.75;14.57;;;5.70;99.90;;;;;;5034870;28;20438;-66
2022/12/07 10:04:18;;;;;;;23.88;14.73;;;5.60;99.90;;;;;;5047330;28;20012;-68
2022/12/07 10:06:45;;;;;;;20.90;13.43;;;5.60;99.90;;;;;;5040154;28;20021;-69
2022/12/07 10:09:12;;;;;;;22.60;14.07;;;5.70;99.90;;;;;;5037873;28;20116;-69
2022/12/07 10:12:08;;;;;;;29.13;15.07;;;5.80;99.90;;;;;;5044577;28;20056;-68
2022/12/07 10:14:37;;;;;;;20.52;13.43;;;5.90;99.90;;;;;;5042879;28;20513;-67
2022/12/07 10:17:24;;;;;;;25.17;14.57;;;6.00;99.90;;;;;;5047054;28;20086;-66
2022/12/07 10:19:50;;;;;;;20.73;13.40;;;5.90;99.90;;;;;;5038724;28;20021;-67
2022/12/07 10:22:17;;;;;;;30.35;13.98;;;5.90;99.90;;;;;;5047629;28;20028;-65
2022/12/07 10:24:46;;;;;;;23.70;12.75;;;5.90;99.90;;;;;;5035732;28;20022;-69
2022/12/07 10:27:37;;;;;;;27.58;12.60;;;5.90;99.90;;;;;;5039430;28;20104;-67
2022/12/07 10:30:09;;;;;;;21.48;11.98;;;6.00;99.90;;;;;;5033146;28;20033;-67
2022/12/07 10:32:36;;;;;;;28.90;11.90;;;5.90;99.90;;;;;;5036762;28;20884;-69
2022/12/07 10:35:25;;;;;;;27.13;12.30;;;5.90;99.90;;;;;;5044275;28;20406;-66
2022/12/07 10:37:53;;;;;;;19.20;10.95;;;5.90;99.90;;;;;;5037314;28;20030;-67
2022/12/07 10:40:31;;;;;;;27.25;12.75;;;5.90;99.90;;;;;;5042651;28;20036;-66
2022/12/07 10:43:16;;;;;;;23.75;10.98;;;5.80;99.90;;;;;;5039751;28;20064;-67
2022/12/07 10:45:51;;;;;;;24.25;12.52;;;5.70;99.90;;;;;;5010215;28;20030;-67
2022/12/07 10:48:33;;;;;;;21.52;11.75;;;5.70;99.90;;;;;;5042525;28;20111;-67
2022/12/07 10:51:07;;;;;;;26.92;13.32;;;5.70;99.90;;;;;;5039047;28;20068;-67
2022/12/07 10:53:38;;;;;;;;;;;5.60;99.90;;;;;;5039663;28;20029;-67
2022/12/07 10:56:13;;;;;;;19.42;10.65;;;5.60;99.90;;;;;;5037280;28;19923;-67
2022/12/07 10:58:54;;;;;;;20.98;10.57;;;5.60;99.90;;;;;;5046208;28;20529;-66
2022/12/07 11:01:51;;;;;;;21.08;12.25;;;5.60;99.90;;;;;;5041525;28;20029;-67
2022/12/07 11:04:54;;;;;;;24.17;11.70;;;5.50;99.90;;;;;;5037106;28;20048;-67
2022/12/07 11:07:36;;;;;;;17.38;10.05;;;5.40;99.90;;;;;;5029739;28;20745;-67
2022/12/07 11:10:44;;;;;;;25.05;11.15;;;5.40;99.90;;;;;;5050837;28;20064;-66
2022/12/07 11:13:26;;;;;;;19.55;10.48;;;5.50;99.90;;;;;;5037607;28;20029;-67
2022/12/07 11:16:16;;;;;;;28.42;11.52;;;5.60;99.90;;;;;;5046024;28;20954;-68
2022/12/07 11:18:48;;;;;;;24.42;10.80;;;5.70;99.90;;;;;;5046040;28;20076;-66
2022/12/07 11:21:23;;;;;;;22.55;10.43;;;5.90;99.90;;;;;;5048438;28;20399;-65
2022/12/07 11:24:06;;;;;;;33.50;11.80;;;5.90;99.90;;;;;;5044546;28;20090;-67
2022/12/07 11:26:53;;;;;;;21.52;10.63;;;5.90;99.90;;;;;;5039701;28;20051;-67
2022/12/07 11:29:42;;;;;;;19.95;9.90;;;5.90;99.90;;;;;;5038916;28;20100;-67
2022/12/07 11:32:25;;;;;;;24.85;10.07;;;5.90;99.90;;;;;;5043122;28;20037;-67
2022/12/07 11:35:03;;;;;;;21.42;9.05;;;6.10;99.90;;;;;;5049330;28;20115;-67
2022/12/07 11:37:32;;;;;;;22.17;9.48;;;6.00;99.90;;;;;;5039669;28;20031;-66
2022/12/07 11:40:35;;;;;;;14.60;8.35;;;6.00;99.90;;;;;;5037801;28;20030;-66
2022/12/07 11:43:06;;;;;;;16.40;8.45;;;6.10;99.90;;;;;;5037727;28;20258;-67
2022/12/07 11:45:34;;;;;;;14.30;7.53;;;6.30;99.90;;;;;;5045031;28;20104;-67
2022/12/07 11:48:09;;;;;;;30.15;8.30;;;6.40;99.90;;;;;;5038329;28;20091;-67
2022/12/07 11:50:42;;;;;;;14.05;5.93;;;6.60;99.90;;;;;;5034421;28;20048;-67
2022/12/07 11:53:07;;;;;;;21.17;7.05;;;6.60;99.90;;;;;;5043027;28;20029;-67
2022/12/07 11:55:45;;;;;;;23.05;7.50;;;6.50;99.90;;;;;;5048273;28;20021;-67
2022/12/07 11:58:27;;;;;;;11.60;6.57;;;6.50;99.90;;;;;;5038337;28;20083;-67
2022/12/07 12:01:25;;;;;;;15.15;6.53;;;6.50;99.90;;;;;;5050081;28;20028;-67
2022/12/07 12:03:58;;;;;;;17.08;6.90;;;6.80;99.90;;;;;;5043639;28;20027;-66
2022/12/07 12:06:23;;;;;;;15.70;6.50;;;6.90;99.90;;;;;;5047181;28;20021;-67
2022/12/07 12:09:13;;;;;;;13.27;7.22;;;7.00;99.90;;;;;;5050423;28;20090;-67
2022/12/07 12:12:03;;;;;;;16.27;6.30;;;6.80;99.90;;;;;;5033145;28;20128;-65
2022/12/07 12:14:45;;;;;;;13.60;6.68;;;6.50;99.90;;;;;;5047191;28;20494;-67
2022/12/07 12:17:35;;;;;;;19.52;6.28;;;6.30;99.90;;;;;;5047879;28;20021;-67
2022/12/07 12:20:19;;;;;;;16.35;5.40;;;6.10;99.90;;;;;;5042434;28;20508;-67
2022/12/07 12:22:58;;;;;;;8.55;4.65;;;5.90;99.90;;;;;;5022685;28;20025;-67
2022/12/07 12:25:42;;;;;;;14.05;5.18;;;5.90;99.90;;;;;;5048161;28;20025;-67
2022/12/07 12:28:26;;;;;;;9.45;4.57;;;5.80;99.90;;;;;;5045934;28;20056;-67
2022/12/07 12:31:07;;;;;;;10.65;4.78;;;5.70;99.90;;;;;;5046408;28;20037;-67
2022/12/07 12:33:33;;;;;;;15.27;5.30;;;5.60;99.90;;;;;;5039900;28;20132;-67
2022/12/07 12:36:24;;;;;;;18.38;6.80;;;5.60;99.90;;;;;;5046212;28;20028;-67
2022/12/07 12:38:58;;;;;;;12.38;5.80;;;5.50;99.90;;;;;;5041135;28;20079;-67
2022/12/07 12:42:05;;;;;;;13.50;5.85;;;5.60;99.90;;;;;;5045453;28;20122;-67
2022/12/07 12:44:33;;;;;;;18.70;6.07;;;5.60;99.90;;;;;;5045911;28;20025;-67
2022/12/07 12:47:04;;;;;;;18.15;5.65;;;5.70;99.90;;;;;;5031654;28;20037;-67
2022/12/07 12:49:43;;;;;;;15.35;6.15;;;5.80;99.90;;;;;;5048106;28;20028;-67
2022/12/07 12:52:14;;;;;;;14.13;6.68;;;6.00;99.90;;;;;;5036774;28;20104;-67
2022/12/07 12:55:11;;;;;;;16.25;6.25;;;6.20;99.90;;;;;;5035216;28;20032;-67
2022/12/07 12:57:37;;;;;;;14.38;6.82;;;6.30;99.90;;;;;;5038724;28;20029;-67
2022/12/07 13:00:21;;;;;;;16.52;6.72;;;6.40;99.90;;;;;;5044688;28;20044;-67